createdAt,value
2023-05-10T00:02:04.603Z,12.76
2023-05-10T00:04:33.811Z,12.78
2023-05-10T00:07:06.806Z,12.72
2023-05-10T00:09:35.701Z,12.68
2023-05-10T00:12:04.162Z,12.59
2023-05-10T00:14:36.406Z,12.56
2023-05-10T00:17:05.359Z,12.45
2023-05-10T00:19:36.380Z,12.41
2023-05-10T00:22:12.010Z,12.33
2023-05-10T00:24:43.736Z,12.22
2023-05-10T00:27:12.623Z,12.23
2023-05-10T00:29:42.578Z,12.22
2023-05-10T00:32:11.833Z,12.11
2023-05-10T00:34:44.895Z,12.07
2023-05-10T00:37:15.828Z,11.92
2023-05-10T00:39:44.759Z,11.93
2023-05-10T00:42:27.635Z,11.84
2023-05-10T00:44:57.706Z,11.78
2023-05-10T00:47:26.711Z,11.71
2023-05-10T00:49:56.717Z,11.59
2023-05-10T00:52:46.089Z,11.53
2023-05-10T00:55:14.543Z,11.50
2023-05-10T00:57:44.346Z,11.44
2023-05-10T01:00:18.928Z,11.33
2023-05-10T01:02:51.443Z,11.27
2023-05-10T01:05:25.117Z,11.27
2023-05-10T01:07:58.628Z,11.16
2023-05-10T01:10:27.737Z,11.08
2023-05-10T01:12:57.944Z,11.04
2023-05-10T01:15:29.180Z,10.96
2023-05-10T01:17:59.308Z,10.88
2023-05-10T01:20:34.935Z,10.87
2023-05-10T01:23:59.790Z,10.76
2023-05-10T01:26:49.581Z,10.73
2023-05-10T01:29:39.339Z,10.72
2023-05-10T01:32:30.075Z,10.69
2023-05-10T01:35:05.889Z,10.64
2023-05-10T01:37:43.666Z,10.66
2023-05-10T01:40:20.812Z,10.69
2023-05-10T01:42:54.274Z,10.67
2023-05-10T01:45:29.786Z,10.68
2023-05-10T01:48:08.427Z,10.67
2023-05-10T01:50:38.924Z,10.62
2023-05-10T01:53:10.506Z,10.64
2023-05-10T01:55:47.622Z,10.66
2023-05-10T01:58:21.681Z,10.73
2023-05-10T02:00:53.290Z,10.78
2023-05-10T02:03:26.074Z,10.79
2023-05-10T02:05:57.829Z,10.78
2023-05-10T02:08:27.179Z,10.76
2023-05-10T02:10:58.416Z,10.77
2023-05-10T02:13:30.552Z,10.75
2023-05-10T02:16:09.894Z,10.81
2023-05-10T02:18:42.909Z,10.81
2023-05-10T02:21:14.077Z,10.81
2023-05-10T02:23:46.080Z,10.78
2023-05-10T02:26:19.725Z,10.72
2023-05-10T02:28:48.608Z,10.72
2023-05-10T02:31:18.309Z,10.72
2023-05-10T02:33:52.323Z,10.68
2023-05-10T02:36:22.085Z,10.58
2023-05-10T02:38:53.943Z,10.59
2023-05-10T02:41:24.900Z,10.52
2023-05-10T02:43:58.956Z,10.49
2023-05-10T02:46:27.931Z,10.44
2023-05-10T02:48:58.403Z,10.38
2023-05-10T02:51:30.763Z,10.36
2023-05-10T02:54:03.721Z,10.30
2023-05-10T02:56:37.038Z,10.24
2023-05-10T02:59:09.457Z,10.21
2023-05-10T03:01:38.248Z,10.21
2023-05-10T03:04:08.734Z,10.15
2023-05-10T03:06:37.673Z,10.11
2023-05-10T03:09:06.844Z,10.14
2023-05-10T03:11:52.595Z,10.13
2023-05-10T03:14:36.896Z,10.09
2023-05-10T03:17:18.544Z,10.08
2023-05-10T03:19:55.804Z,10.04
2023-05-10T03:22:28.922Z,10.07
2023-05-10T03:24:59.546Z,10.03
2023-05-10T03:27:30.355Z,10.05
2023-05-10T03:30:00.942Z,10.01
2023-05-10T03:32:33.977Z,9.95
2023-05-10T03:35:11.582Z,9.98
2023-05-10T03:37:42.939Z,9.99
2023-05-10T03:40:13.526Z,10.07
2023-05-10T03:42:44.095Z,10.10
2023-05-10T03:45:28.570Z,10.18
2023-05-10T03:48:00.328Z,10.19
2023-05-10T03:50:33.624Z,10.23
2023-05-10T03:53:10.419Z,10.24
2023-05-10T03:55:39.559Z,10.21
2023-05-10T03:58:14.373Z,10.26
2023-05-10T04:00:51.921Z,10.20
2023-05-10T04:03:27.120Z,10.22
2023-05-10T04:06:25.522Z,10.30
2023-05-10T04:09:05.171Z,10.22
2023-05-10T04:11:37.204Z,10.27
2023-05-10T04:14:06.310Z,10.26
2023-05-10T04:16:36.065Z,10.29
2023-05-10T04:19:04.864Z,10.43
2023-05-10T04:21:35.836Z,10.39
2023-05-10T04:24:07.944Z,10.36
2023-05-10T04:26:36.461Z,10.36
2023-05-10T04:29:04.932Z,10.50
2023-05-10T04:31:39.790Z,10.63
2023-05-10T04:34:08.501Z,10.72
2023-05-10T04:36:49.039Z,10.82
2023-05-10T04:39:25.698Z,10.95
2023-05-10T04:41:56.612Z,11.00
2023-05-10T04:44:25.649Z,11.11
2023-05-10T04:46:54.704Z,11.20
2023-05-10T04:49:24.289Z,11.27
2023-05-10T04:51:55.356Z,11.45
2023-05-10T04:54:24.425Z,11.55
2023-05-10T04:57:09.501Z,11.65
2023-05-10T04:59:44.917Z,11.81
2023-05-10T05:02:14.158Z,11.73
2023-05-10T05:04:47.870Z,11.78
2023-05-10T05:07:18.587Z,11.84
2023-05-10T05:09:50.286Z,11.91
2023-05-10T05:12:35.596Z,11.94
2023-05-10T05:15:11.847Z,11.94
2023-05-10T05:17:41.937Z,11.98
2023-05-10T05:20:11.917Z,11.96
2023-05-10T05:22:43.325Z,12.00
2023-05-10T05:25:13.221Z,11.96
2023-05-10T05:27:44.389Z,12.01
2023-05-10T05:30:16.437Z,11.96
2023-05-10T05:32:45.633Z,11.98
2023-05-10T05:35:14.820Z,11.89
2023-05-10T05:37:52.020Z,11.88
2023-05-10T05:40:29.968Z,11.81
2023-05-10T05:43:01.378Z,11.85
2023-05-10T05:45:38.355Z,11.90
2023-05-10T05:48:08.054Z,11.94
2023-05-10T05:50:37.497Z,11.93
2023-05-10T05:53:07.481Z,12.02
2023-05-10T05:55:40.423Z,12.06
2023-05-10T05:58:15.374Z,12.16
2023-05-10T06:00:44.118Z,12.14
2023-05-10T06:03:12.844Z,12.32
2023-05-10T06:05:46.356Z,12.38
2023-05-10T06:08:16.708Z,12.54
2023-05-10T06:10:45.500Z,12.62
2023-05-10T10:08:59.484Z,18.37
2023-05-10T10:12:29.371Z,18.41
2023-05-10T10:15:41.639Z,18.23
2023-05-10T10:19:00.472Z,18.07
2023-05-10T10:22:19.360Z,17.95
2023-05-10T10:29:09.003Z,17.54
2023-05-10T10:32:22.670Z,17.93
2023-05-10T10:38:50.479Z,17.66
2023-05-10T10:45:48.180Z,17.74
2023-05-10T10:48:30.971Z,17.69
2023-05-10T10:56:32.181Z,17.95
2023-05-10T11:00:00.331Z,17.92
2023-05-10T11:03:51.711Z,17.86
2023-05-10T11:06:44.268Z,17.77
2023-05-10T11:09:23.532Z,17.93
2023-05-10T11:12:10.561Z,18.05
2023-05-10T11:15:03.609Z,18.18
2023-05-10T11:29:56.843Z,18.67
2023-05-10T11:32:30.780Z,19.18
2023-05-10T11:38:11.158Z,20.12
2023-05-10T11:40:57.304Z,20.41
2023-05-10T11:43:43.296Z,20.44
2023-05-10T11:46:28.527Z,20.07
2023-05-10T11:49:17.097Z,19.76
2023-05-10T11:52:14.175Z,19.43
2023-05-10T11:55:15.546Z,19.19
2023-05-10T11:58:03.407Z,18.95
2023-05-10T12:01:00.484Z,18.91
2023-05-10T12:03:47.607Z,18.85
2023-05-10T12:10:22.470Z,18.91
2023-05-10T12:16:31.242Z,19.17
2023-05-10T12:19:06.753Z,19.43
2023-05-10T12:21:59.939Z,19.60
2023-05-10T12:25:01.286Z,19.74
2023-05-10T12:27:41.229Z,19.76
2023-05-10T12:30:57.857Z,19.88
2023-05-10T12:34:04.918Z,19.82
2023-05-10T12:36:41.923Z,20.00
2023-05-10T12:42:35.383Z,19.62
2023-05-10T12:45:18.592Z,19.68
2023-05-10T12:47:56.489Z,19.69
2023-05-10T12:51:03.471Z,19.71
2023-05-10T12:54:27.597Z,19.73
2023-05-10T12:57:27.551Z,19.54
2023-05-10T13:00:02.648Z,19.59
2023-05-10T13:03:10.104Z,19.51
2023-05-10T13:06:07.367Z,19.78
2023-05-10T13:09:08.561Z,19.99
2023-05-10T13:12:18.705Z,19.98
2023-05-10T13:15:22.034Z,20.01
2023-05-10T13:17:53.838Z,19.98
2023-05-10T13:20:24.967Z,20.01
2023-05-10T13:22:57.589Z,19.96
2023-05-10T13:25:27.120Z,20.06
2023-05-10T13:27:57.042Z,20.07
2023-05-10T13:30:26.206Z,20.33
2023-05-10T13:32:55.039Z,20.52
2023-05-10T13:35:23.814Z,20.56
2023-05-10T13:37:55.239Z,20.72
2023-05-10T13:40:28.684Z,20.88
2023-05-10T13:43:04.763Z,21.11
2023-05-10T13:45:37.918Z,21.34
2023-05-10T13:48:29.136Z,21.44
2023-05-10T13:50:57.690Z,21.84
2023-05-10T13:54:01.857Z,21.98
2023-05-10T13:56:37.680Z,21.86
2023-05-10T13:59:12.010Z,21.66
2023-05-10T14:01:40.615Z,21.47
2023-05-10T14:06:55.075Z,21.29
2023-05-10T14:09:26.650Z,21.36
2023-05-10T14:12:06.650Z,21.51
2023-05-10T14:14:43.173Z,21.64
2023-05-10T14:17:30.635Z,21.69
2023-05-10T14:20:09.585Z,21.88
2023-05-10T14:22:38.374Z,21.70
2023-05-10T14:25:10.423Z,21.70
2023-05-10T14:27:40.643Z,21.89
2023-05-10T14:30:14.277Z,21.85
2023-05-10T14:33:02.994Z,22.00
2023-05-10T14:35:43.746Z,21.82
2023-05-10T14:38:24.255Z,21.62
2023-05-10T14:40:59.122Z,21.40
2023-05-10T14:43:29.484Z,21.19
2023-05-10T14:46:11.070Z,21.12
2023-05-10T14:48:42.767Z,21.05
2023-05-10T14:51:20.972Z,20.93
2023-05-10T14:53:56.524Z,21.00
2023-05-10T14:59:30.399Z,21.67
2023-05-10T15:05:08.729Z,21.39
2023-05-10T15:15:28.578Z,20.49
2023-05-10T15:18:13.148Z,20.27
2023-05-10T15:20:44.537Z,20.15
2023-05-10T15:23:16.763Z,20.09
2023-05-10T15:25:46.811Z,20.07
2023-05-10T15:28:16.532Z,20.02
2023-05-10T15:30:48.874Z,20.00
2023-05-10T15:33:38.474Z,20.02
2023-05-10T15:36:21.151Z,20.16
2023-05-10T15:39:01.359Z,20.12
2023-05-10T15:41:33.591Z,20.10
2023-05-10T15:44:05.327Z,20.09
2023-05-10T15:46:36.016Z,20.09
2023-05-10T15:49:04.449Z,20.00
2023-05-10T15:51:47.837Z,19.88
2023-05-10T15:54:35.573Z,19.74
2023-05-10T15:57:04.605Z,19.80
2023-05-10T15:59:42.394Z,19.83
2023-05-10T16:02:19.516Z,19.77
2023-05-10T16:04:48.629Z,19.73
2023-05-10T16:07:26.341Z,19.64
2023-05-10T16:09:55.087Z,19.57
2023-05-10T16:12:26.922Z,19.47
2023-05-10T16:15:08.600Z,19.38
2023-05-10T16:17:42.477Z,19.34
2023-05-10T16:20:18.586Z,19.39
2023-05-10T16:22:47.615Z,19.32
2023-05-10T16:25:16.854Z,19.26
2023-05-10T16:27:45.708Z,19.27
2023-05-10T16:30:18.197Z,19.39
2023-05-10T16:34:00.342Z,19.42
2023-05-10T16:36:36.077Z,19.27
2023-05-10T16:39:12.489Z,19.17
2023-05-10T16:41:44.872Z,19.08
2023-05-10T16:44:13.351Z,18.94
2023-05-10T16:46:42.214Z,18.83
2023-05-10T16:49:12.517Z,18.79
2023-05-10T16:51:45.777Z,18.88
2023-05-10T16:54:14.596Z,18.85
2023-05-10T16:56:46.157Z,18.77
2023-05-10T16:59:14.938Z,18.63
2023-05-10T17:01:43.647Z,18.51
2023-05-10T17:04:14.331Z,18.39
2023-05-10T17:06:43.654Z,18.29
2023-05-10T17:09:12.512Z,18.18
2023-05-10T17:11:44.904Z,18.09
2023-05-10T17:14:41.471Z,18.02
2023-05-10T17:17:12.622Z,17.88
2023-05-10T17:19:49.789Z,17.85
2023-05-10T17:22:28.790Z,17.68
2023-05-10T17:25:07.649Z,17.64
2023-05-10T17:27:39.640Z,17.44
2023-05-10T17:30:19.487Z,17.31
2023-05-10T17:32:48.336Z,17.14
2023-05-10T17:35:19.289Z,17.03
2023-05-10T17:37:48.544Z,16.85
2023-05-10T17:40:20.288Z,16.67
2023-05-10T17:42:54.307Z,16.54
2023-05-10T17:45:33.100Z,16.34
2023-05-10T17:48:03.752Z,16.18
2023-05-10T17:54:02.877Z,15.77
2023-05-10T17:56:32.835Z,15.60
2023-05-10T17:59:39.020Z,15.44
2023-05-10T18:02:08.469Z,15.25
2023-05-10T18:04:50.335Z,15.09
2023-05-10T18:07:40.174Z,14.90
2023-05-10T18:10:15.946Z,14.75
2023-05-10T18:13:10.216Z,14.52
2023-05-10T18:15:41.746Z,14.40
2023-05-10T18:18:13.948Z,14.25
2023-05-10T18:20:43.096Z,14.13
2023-05-10T18:23:19.916Z,14.05
2023-05-10T18:28:52.826Z,13.71
2023-05-10T18:31:49.786Z,13.49
2023-05-10T18:34:33.500Z,13.26
2023-05-10T18:41:12.435Z,13.06
2023-05-10T18:43:43.185Z,12.94
2023-05-10T18:46:13.053Z,12.82
2023-05-10T18:48:45.333Z,12.76
2023-05-10T18:51:17.157Z,12.64
2023-05-10T18:53:58.908Z,12.52
2023-05-10T19:01:01.270Z,12.27
2023-05-10T19:08:54.257Z,12.11
2023-05-10T19:11:41.425Z,11.90
2023-05-10T19:14:10.406Z,11.89
2023-05-10T19:16:48.364Z,11.88
2023-05-10T20:51:38.720Z,11.48
2023-05-10T20:54:24.511Z,11.41
2023-05-10T20:57:18.260Z,11.40
2023-05-10T21:00:02.885Z,11.31
2023-05-10T21:02:54.667Z,11.25
2023-05-10T21:05:37.325Z,11.14
2023-05-10T21:08:17.008Z,11.11
2023-05-10T21:11:07.797Z,11.03
2023-05-10T21:13:40.548Z,11.05
2023-05-10T21:16:12.219Z,11.12
2023-05-10T21:19:00.681Z,11.19
2023-05-10T21:21:29.489Z,11.37
2023-05-10T21:24:01.276Z,11.48
2023-05-10T21:26:29.806Z,11.59
2023-05-10T21:28:59.536Z,11.74
2023-05-10T21:31:28.086Z,11.87
2023-05-10T21:33:57.118Z,11.95
2023-05-10T21:36:26.998Z,12.01
2023-05-10T21:38:57.338Z,11.96
2023-05-10T21:41:27.271Z,11.81
2023-05-10T21:43:58.875Z,11.76
2023-05-10T21:46:27.448Z,11.71
2023-05-10T21:48:59.478Z,11.63
2023-05-10T21:51:29.350Z,11.48
2023-05-10T21:53:57.703Z,11.38
2023-05-10T21:56:28.219Z,11.24
2023-05-10T21:58:56.599Z,11.13
2023-05-10T22:01:27.218Z,11.03
2023-05-10T22:03:55.712Z,10.92
2023-05-10T22:06:24.145Z,10.88
2023-05-10T22:08:54.489Z,10.83
2023-05-10T22:11:28.461Z,10.77
2023-05-10T22:14:18.933Z,10.69
2023-05-10T22:16:50.361Z,10.63
2023-05-10T22:19:21.791Z,10.64
2023-05-10T22:22:10.196Z,10.63
2023-05-10T22:25:28.367Z,10.54
2023-05-10T22:28:30.977Z,10.57
2023-05-10T22:34:20.715Z,10.69
2023-05-10T22:37:09.361Z,10.73
2023-05-10T22:40:02.783Z,10.70
2023-05-10T22:42:45.680Z,10.71
2023-05-10T22:45:39.570Z,10.69
2023-05-10T22:48:35.598Z,10.69
2023-05-10T22:51:23.290Z,10.67
2023-05-10T22:54:07.580Z,10.66
2023-05-10T22:56:50.626Z,10.60
2023-05-10T22:59:37.232Z,10.62
2023-05-10T23:02:17.946Z,10.57
2023-05-10T23:05:07.782Z,10.55
2023-05-10T23:07:59.452Z,10.54
2023-05-10T23:10:47.774Z,10.53
2023-05-10T23:13:18.920Z,10.45
2023-05-10T23:15:51.875Z,10.50
2023-05-10T23:18:30.883Z,10.48
2023-05-10T23:21:13.550Z,10.47
2023-05-10T23:23:58.888Z,10.43
2023-05-10T23:26:35.922Z,10.42
2023-05-10T23:29:24.873Z,10.42
2023-05-10T23:32:05.115Z,10.42
2023-05-10T23:37:35.230Z,10.46
2023-05-10T23:40:12.056Z,10.42
2023-05-10T23:42:50.043Z,10.46
2023-05-10T23:45:27.566Z,10.50
2023-05-10T23:51:28.197Z,10.48
2023-05-10T23:54:12.611Z,10.46
2023-05-10T23:56:54.537Z,10.50
2023-05-10T23:59:41.419Z,10.49
